Time;durP1;ratioP1;P1;durP2;ratioP2;P2;SDS_P1;SDS_P2;PMS_P1;PMS_P2;Temp;Humidity;BMP_temperature;BMP_pressure;BME280_temperature;BME280_humidity;BME280_pressure;Samples;Min_cycle;Max_cycle;Signal;HPM_P1;HPM_P2
2022/07/25 00:00:10;;;;;;;13.40;8.20;;;23.30;60.70;;;;;;5020363;28;20459;-76
2022/07/25 00:02:38;;;;;;;11.90;8.87;;;23.20;60.90;;;;;;5028046;28;20465;-78
2022/07/25 00:05:07;;;;;;;16.00;8.57;;;23.20;61.00;;;;;;5021854;28;20477;-78
2022/07/25 00:07:35;;;;;;;10.90;7.57;;;23.20;61.10;;;;;;5023068;28;20487;-79
2022/07/25 00:10:04;;;;;;;10.03;7.80;;;23.20;61.10;;;;;;5023247;28;20475;-77
2022/07/25 00:12:33;;;;;;;18.90;8.17;;;23.20;61.20;;;;;;5020354;28;20469;-77
2022/07/25 00:15:01;;;;;;;13.80;8.10;;;23.20;61.20;;;;;;5021536;28;20457;-77
2022/07/25 00:17:29;;;;;;;10.93;7.43;;;23.20;61.20;;;;;;5021281;28;20480;-78
2022/07/25 00:19:57;;;;;;;12.73;8.83;;;23.20;61.20;;;;;;5021931;28;20476;-78
2022/07/25 00:22:25;;;;;;;13.20;8.20;;;23.20;61.20;;;;;;5021256;28;20465;-78
2022/07/25 00:24:53;;;;;;;14.57;8.27;;;23.20;61.20;;;;;;5023079;28;20462;-77
2022/07/25 00:27:21;;;;;;;12.37;7.83;;;23.10;61.30;;;;;;5022655;28;20470;-78
2022/07/25 00:29:50;;;;;;;12.17;8.60;;;23.10;61.30;;;;;;5010479;28;20479;-79
2022/07/25 00:32:18;;;;;;;10.67;7.50;;;23.10;61.30;;;;;;5020947;28;20506;-79
2022/07/25 00:34:46;;;;;;;11.83;9.10;;;23.00;61.30;;;;;;5022958;28;20901;-78
2022/07/25 00:37:14;;;;;;;14.60;8.63;;;23.00;61.30;;;;;;5020674;28;20501;-78
2022/07/25 00:39:42;;;;;;;12.77;7.70;;;23.00;61.30;;;;;;5019583;28;20470;-78
2022/07/25 00:42:10;;;;;;;10.50;7.63;;;23.00;61.30;;;;;;5022957;28;20464;-79
2022/07/25 00:44:37;;;;;;;13.33;8.87;;;22.90;61.30;;;;;;5019114;28;20475;-78
2022/07/25 00:47:07;;;;;;;11.37;8.07;;;22.90;61.30;;;;;;5023655;28;20533;-78
2022/07/25 00:49:35;;;;;;;14.10;8.93;;;22.80;61.40;;;;;;5018681;28;20474;-78
2022/07/25 00:52:03;;;;;;;13.73;9.93;;;22.80;61.40;;;;;;5022353;28;20472;-78
2022/07/25 00:54:32;;;;;;;12.67;8.17;;;22.80;61.50;;;;;;5021720;28;20463;-78
2022/07/25 00:57:00;;;;;;;13.73;8.47;;;22.80;61.50;;;;;;5024529;28;20584;-78
2022/07/25 00:59:29;;;;;;;13.33;8.77;;;22.80;61.60;;;;;;5023956;28;20465;-78
2022/07/25 01:01:56;;;;;;;12.40;8.10;;;22.80;61.60;;;;;;5018607;28;20513;-79
2022/07/25 01:04:26;;;;;;;9.20;7.10;;;22.70;61.70;;;;;;5023987;28;20556;-78
2022/07/25 01:06:54;;;;;;;16.67;8.73;;;22.70;61.80;;;;;;5020720;28;20477;-79
2022/07/25 01:09:23;;;;;;;12.07;8.90;;;22.70;61.80;;;;;;5022135;28;20464;-78
2022/07/25 01:11:50;;;;;;;16.50;8.10;;;22.70;61.70;;;;;;5023077;28;20463;-78
2022/07/25 01:14:18;;;;;;;13.63;9.10;;;22.60;61.70;;;;;;5022539;28;20469;-78
2022/07/25 01:16:46;;;;;;;12.80;8.60;;;22.60;61.70;;;;;;5021389;28;20495;-79
2022/07/25 01:19:15;;;;;;;11.33;8.40;;;22.50;61.90;;;;;;5023061;28;20479;-79
2022/07/25 01:21:45;;;;;;;11.00;8.77;;;22.50;61.90;;;;;;5022992;28;20461;-77
2022/07/25 01:24:13;;;;;;;11.63;8.83;;;22.50;61.90;;;;;;5022845;28;20467;-78
2022/07/25 01:26:41;;;;;;;12.73;9.23;;;22.40;61.90;;;;;;5024414;28;20530;-78
2022/07/25 01:29:08;;;;;;;12.13;8.43;;;22.40;62.00;;;;;;5024098;28;20461;-78
2022/07/25 01:31:36;;;;;;;12.87;9.27;;;22.40;62.00;;;;;;5021561;28;20491;-77
2022/07/25 01:34:04;;;;;;;11.90;8.07;;;22.30;62.10;;;;;;5022485;28;20450;-78
2022/07/25 01:36:33;;;;;;;11.50;8.80;;;22.30;62.10;;;;;;5021208;28;20487;-78
2022/07/25 01:39:02;;;;;;;11.23;8.80;;;22.20;62.20;;;;;;5022605;28;20456;-78
2022/07/25 01:41:30;;;;;;;13.80;8.40;;;22.20;62.30;;;;;;5021736;28;20468;-79
2022/07/25 01:43:58;;;;;;;11.33;8.70;;;22.20;62.40;;;;;;5025263;28;20467;-79
2022/07/25 01:46:26;;;;;;;12.03;8.40;;;22.20;62.40;;;;;;5028195;28;21041;-78
2022/07/25 01:48:54;;;;;;;11.53;8.83;;;22.20;62.50;;;;;;5030245;28;20542;-77
2022/07/25 01:51:22;;;;;;;15.53;9.03;;;22.20;62.50;;;;;;5024844;28;20488;-78
2022/07/25 01:53:53;;;;;;;15.10;8.60;;;22.20;62.50;;;;;;5025073;28;20474;-78
2022/07/25 01:56:23;;;;;;;11.00;8.40;;;22.10;62.50;;;;;;5026102;28;20472;-77
2022/07/25 01:58:51;;;;;;;15.00;9.00;;;22.10;62.50;;;;;;5026745;28;20464;-77
2022/07/25 02:01:19;;;;;;;14.83;8.63;;;22.10;62.60;;;;;;5023911;28;20481;-78
2022/07/25 02:03:49;;;;;;;12.27;8.70;;;22.00;62.60;;;;;;5026907;28;22088;-77
2022/07/25 02:06:18;;;;;;;13.27;8.93;;;22.00;62.70;;;;;;5029825;28;20462;-78
2022/07/25 02:08:46;;;;;;;12.00;8.80;;;21.90;62.70;;;;;;5018762;28;20475;-77
2022/07/25 02:11:15;;;;;;;10.80;8.13;;;21.90;62.80;;;;;;5028462;28;20804;-77
2022/07/25 02:13:45;;;;;;;10.83;8.60;;;21.90;62.80;;;;;;5035989;28;20464;-78
2022/07/25 02:16:13;;;;;;;12.47;8.37;;;21.90;62.90;;;;;;5032007;28;20487;-77
2022/07/25 02:18:41;;;;;;;23.07;9.47;;;21.90;63.00;;;;;;5031554;28;20483;-78
2022/07/25 02:21:09;;;;;;;11.50;9.20;;;21.90;63.10;;;;;;5034467;28;20451;-76
2022/07/25 02:23:41;;;;;;;10.80;8.70;;;21.90;63.10;;;;;;5035613;28;20808;-78
2022/07/25 02:26:09;;;;;;;11.23;8.83;;;21.80;63.10;;;;;;5032376;28;20467;-78
2022/07/25 02:28:37;;;;;;;13.80;8.47;;;21.80;63.10;;;;;;5028287;28;20493;-77
2022/07/25 02:31:07;;;;;;;12.00;8.83;;;21.80;63.30;;;;;;5029231;28;20472;-78
2022/07/25 02:33:35;;;;;;;13.43;9.20;;;21.80;63.30;;;;;;5026195;28;20458;-78
2022/07/25 02:36:03;;;;;;;13.73;9.23;;;21.80;63.30;;;;;;5025769;28;20543;-78
2022/07/25 02:38:31;;;;;;;13.00;8.00;;;21.80;63.40;;;;;;5021787;28;20490;-78
2022/07/25 02:41:08;;;;;;;12.37;8.60;;;21.80;63.50;;;;;;5026798;28;20465;-78
2022/07/25 02:43:36;;;;;;;12.40;9.03;;;21.80;63.60;;;;;;5024232;28;20456;-77
2022/07/25 02:46:06;;;;;;;10.93;8.33;;;21.80;63.50;;;;;;5023388;28;20563;-78
2022/07/25 02:48:34;;;;;;;12.93;9.00;;;21.80;63.60;;;;;;5023745;28;20470;-78
2022/07/25 02:51:02;;;;;;;12.70;9.30;;;21.80;63.60;;;;;;5012516;28;20472;-78
2022/07/25 02:53:30;;;;;;;12.10;9.03;;;21.80;63.60;;;;;;5024120;28;20464;-77
2022/07/25 02:56:18;;;;;;;14.63;9.60;;;21.70;63.80;;;;;;5017648;28;20971;-78
2022/07/25 03:02:55;;;;;;;13.40;9.93;;;21.70;64.00;;;;;;5023477;28;20904;-78
2022/07/25 03:05:23;;;;;;;12.13;9.47;;;21.60;64.10;;;;;;5025366;28;20467;-78
2022/07/25 03:07:51;;;;;;;13.10;9.00;;;21.60;64.20;;;;;;5026942;28;20468;-78
2022/07/25 03:10:19;;;;;;;11.97;9.60;;;21.50;64.30;;;;;;5026608;28;20490;-78
2022/07/25 03:12:47;;;;;;;11.67;9.07;;;21.50;64.40;;;;;;5028164;28;20523;-78
2022/07/25 03:15:15;;;;;;;13.13;9.40;;;21.50;64.50;;;;;;5022703;28;20490;-78
2022/07/25 03:17:43;;;;;;;13.97;10.20;;;21.40;64.60;;;;;;5023463;28;20480;-77
2022/07/25 03:20:13;;;;;;;10.67;8.30;;;21.40;64.70;;;;;;5029125;28;20462;-78
2022/07/25 03:22:41;;;;;;;14.37;10.33;;;21.40;64.80;;;;;;5027363;28;20458;-78
2022/07/25 03:25:09;;;;;;;13.27;9.43;;;21.40;65.00;;;;;;5026756;28;20996;-78
2022/07/25 03:27:49;;;;;;;15.33;10.23;;;21.40;65.00;;;;;;5022670;28;20479;-77
2022/07/25 03:30:17;;;;;;;14.17;10.07;;;21.30;65.00;;;;;;5023961;28;20551;-77
2022/07/25 03:32:45;;;;;;;13.70;10.13;;;21.30;65.00;;;;;;5024297;28;20460;-77
2022/07/25 03:35:15;;;;;;;12.80;8.90;;;21.30;65.10;;;;;;5024773;28;20482;-77
2022/07/25 03:37:43;;;;;;;13.80;10.60;;;21.30;65.20;;;;;;5024686;28;20484;-77
2022/07/25 03:40:13;;;;;;;11.70;9.00;;;21.30;65.20;;;;;;5026428;28;20465;-77
2022/07/25 03:42:42;;;;;;;17.13;10.40;;;21.30;65.20;;;;;;5026143;28;20603;-77
2022/07/25 03:45:11;;;;;;;14.13;8.90;;;21.30;65.20;;;;;;5021044;28;20771;-77
2022/07/25 03:47:39;;;;;;;12.37;9.80;;;21.20;65.30;;;;;;5012003;28;20482;-78
2022/07/25 03:50:07;;;;;;;17.10;9.87;;;21.20;65.30;;;;;;5025009;28;21196;-77
2022/07/25 03:52:37;;;;;;;12.10;8.57;;;21.20;65.40;;;;;;5024067;28;20488;-77
2022/07/25 03:55:06;;;;;;;12.30;9.43;;;21.20;65.40;;;;;;5022806;28;20459;-77
2022/07/25 03:57:34;;;;;;;12.43;9.10;;;21.20;65.50;;;;;;5023078;28;20483;-77
2022/07/25 04:00:03;;;;;;;13.30;10.00;;;21.20;65.60;;;;;;5019879;28;20471;-77
2022/07/25 04:02:32;;;;;;;12.10;9.90;;;21.20;65.60;;;;;;5022477;28;20935;-77
2022/07/25 04:05:00;;;;;;;12.53;9.43;;;21.10;65.70;;;;;;5023321;28;21003;-77
2022/07/25 04:07:28;;;;;;;16.50;9.67;;;21.20;65.80;;;;;;5018326;28;20487;-78
2022/07/25 04:09:58;;;;;;;13.90;10.27;;;21.20;65.80;;;;;;5019399;28;20474;-77
2022/07/25 04:12:26;;;;;;;13.67;9.80;;;21.20;65.90;;;;;;5024404;28;20687;-77
2022/07/25 04:14:54;;;;;;;13.03;10.00;;;21.30;65.80;;;;;;5021707;28;20474;-77
2022/07/25 04:17:21;;;;;;;13.83;9.90;;;21.30;65.80;;;;;;5027412;28;20481;-77
2022/07/25 04:19:52;;;;;;;13.23;9.67;;;21.30;65.70;;;;;;5023117;28;20949;-77
2022/07/25 04:22:22;;;;;;;10.90;8.83;;;21.30;65.80;;;;;;5022895;28;20476;-78
2022/07/25 04:24:50;;;;;;;12.83;8.50;;;21.30;65.90;;;;;;5021692;28;20491;-78
2022/07/25 04:27:19;;;;;;;12.77;9.50;;;21.30;65.90;;;;;;5021726;28;20498;-77
2022/07/25 04:29:47;;;;;;;12.73;9.03;;;21.30;66.00;;;;;;5016782;28;20456;-78
2022/07/25 04:32:15;;;;;;;12.70;9.83;;;21.40;66.00;;;;;;5017612;28;20642;-78
2022/07/25 04:34:51;;;;;;;13.00;9.47;;;21.40;66.00;;;;;;5019623;28;20483;-77
2022/07/25 04:37:19;;;;;;;13.37;10.00;;;21.50;66.00;;;;;;5021658;28;20518;-77
2022/07/25 04:39:46;;;;;;;12.50;9.03;;;21.50;66.00;;;;;;5022819;28;20484;-77
2022/07/25 04:42:14;;;;;;;12.60;9.03;;;21.60;66.00;;;;;;5021358;28;20475;-77
2022/07/25 04:44:44;;;;;;;13.57;10.27;;;21.70;65.90;;;;;;5010338;28;20479;-77
2022/07/25 04:47:11;;;;;;;13.77;9.50;;;21.70;65.90;;;;;;5020962;28;20515;-77
2022/07/25 04:49:39;;;;;;;15.50;10.20;;;21.80;65.90;;;;;;5022963;28;20559;-77
2022/07/25 04:52:07;;;;;;;14.33;10.30;;;21.90;65.90;;;;;;5022193;28;20476;-78
2022/07/25 04:54:35;;;;;;;11.77;9.50;;;21.90;65.90;;;;;;5023208;28;20472;-77
2022/07/25 04:57:04;;;;;;;12.20;9.07;;;22.10;65.80;;;;;;5023598;28;20488;-78
2022/07/25 04:59:32;;;;;;;13.27;8.53;;;22.20;65.90;;;;;;5014816;28;20860;-77
2022/07/25 05:02:01;;;;;;;11.70;9.10;;;22.30;65.80;;;;;;5017397;28;20484;-77
2022/07/25 05:04:29;;;;;;;16.43;9.30;;;22.50;65.60;;;;;;5020578;28;20478;-77
2022/07/25 05:06:58;;;;;;;14.40;10.07;;;22.60;65.50;;;;;;5022980;28;20494;-77
2022/07/25 05:09:27;;;;;;;12.97;10.17;;;22.80;65.50;;;;;;5019626;28;20472;-77
2022/07/25 05:11:55;;;;;;;13.27;10.87;;;22.90;65.50;;;;;;5021248;28;20479;-77
2022/07/25 05:14:23;;;;;;;14.90;10.30;;;23.00;65.40;;;;;;5020670;28;20459;-77
2022/07/25 05:16:51;;;;;;;12.30;9.30;;;23.20;65.50;;;;;;5021260;28;20490;-77
2022/07/25 05:19:21;;;;;;;12.50;10.03;;;23.30;65.50;;;;;;5024956;28;20606;-77
2022/07/25 05:21:49;;;;;;;16.40;11.43;;;23.50;65.50;;;;;;5026868;28;20466;-77
2022/07/25 05:24:17;;;;;;;12.70;10.40;;;23.60;65.50;;;;;;5026767;28;21021;-77
2022/07/25 05:26:45;;;;;;;13.13;11.20;;;23.80;65.70;;;;;;5024362;28;20477;-77
2022/07/25 05:29:13;;;;;;;14.57;11.30;;;24.00;65.90;;;;;;5024401;28;20468;-77
2022/07/25 05:31:41;;;;;;;15.13;11.50;;;24.30;66.10;;;;;;5026808;28;20479;-77
2022/07/25 05:34:09;;;;;;;14.33;11.90;;;24.90;65.60;;;;;;5025261;28;20517;-77
2022/07/25 05:36:38;;;;;;;13.57;11.37;;;25.70;64.30;;;;;;5027206;28;20462;-77
2022/07/25 05:39:12;;;;;;;13.97;11.00;;;26.70;62.60;;;;;;5033718;28;20463;-77
2022/07/25 05:41:40;;;;;;;13.50;11.27;;;27.70;61.00;;;;;;5016028;28;21086;-77
2022/07/25 05:44:08;;;;;;;14.20;11.57;;;28.50;59.70;;;;;;5025363;28;20465;-77
2022/07/25 05:46:36;;;;;;;14.73;10.90;;;29.30;58.60;;;;;;5022146;28;20473;-77
2022/07/25 05:49:04;;;;;;;16.07;12.10;;;30.10;57.60;;;;;;5027575;28;20473;-77
2022/07/25 05:51:32;;;;;;;14.97;11.13;;;30.70;56.80;;;;;;5028226;28;20903;-77
2022/07/25 05:54:02;;;;;;;13.10;10.73;;;31.30;55.80;;;;;;5027948;28;20458;-77
2022/07/25 05:56:30;;;;;;;14.40;11.10;;;31.90;55.20;;;;;;5024560;28;20481;-77
2022/07/25 05:58:58;;;;;;;14.33;11.20;;;32.40;54.30;;;;;;5027827;28;20481;-77
2022/07/25 06:01:26;;;;;;;14.53;10.73;;;32.90;53.40;;;;;;5025399;28;20497;-77
2022/07/25 06:03:55;;;;;;;15.53;11.23;;;33.30;52.70;;;;;;5028441;28;20459;-77
2022/07/25 06:06:23;;;;;;;16.47;12.30;;;33.80;52.10;;;;;;5028749;28;20893;-77
2022/07/25 06:08:51;;;;;;;15.77;11.50;;;34.20;51.50;;;;;;5027953;28;20491;-77
2022/07/25 06:11:22;;;;;;;13.53;10.63;;;34.70;50.80;;;;;;5027258;28;20457;-77
2022/07/25 06:13:52;;;;;;;13.53;10.00;;;35.10;50.00;;;;;;5028236;28;20499;-77
2022/07/25 06:16:20;;;;;;;13.43;11.40;;;35.60;49.20;;;;;;5005539;28;20480;-76
2022/07/25 06:18:48;;;;;;;12.73;10.37;;;35.90;48.30;;;;;;5025749;28;20993;-77
2022/07/25 06:21:16;;;;;;;11.80;9.60;;;36.20;47.60;;;;;;5024846;28;20456;-77
2022/07/25 06:23:44;;;;;;;11.47;9.33;;;36.20;47.00;;;;;;5032958;28;20456;-77
2022/07/25 06:26:12;;;;;;;12.37;9.50;;;35.80;46.90;;;;;;5027470;28;20459;-76
2022/07/25 06:28:41;;;;;;;14.20;11.53;;;34.90;46.80;;;;;;5026610;28;20483;-77
2022/07/25 06:31:09;;;;;;;11.83;8.77;;;33.50;47.60;;;;;;5026272;28;20867;-76
2022/07/25 06:33:37;;;;;;;14.40;10.70;;;32.20;48.70;;;;;;5024111;28;20461;-76
2022/07/25 06:36:06;;;;;;;13.87;10.33;;;30.90;49.90;;;;;;5027487;28;20486;-77
2022/07/25 06:38:34;;;;;;;12.97;10.53;;;29.90;51.20;;;;;;5026939;28;20491;-77
2022/07/25 06:41:02;;;;;;;15.37;11.40;;;29.00;52.30;;;;;;5023525;28;20499;-76
2022/07/25 06:43:30;;;;;;;12.63;9.90;;;28.30;53.30;;;;;;5027094;28;20469;-76
2022/07/25 06:45:59;;;;;;;17.40;10.30;;;27.80;54.20;;;;;;5027181;28;20475;-77
2022/07/25 06:48:27;;;;;;;12.47;9.67;;;27.40;55.00;;;;;;5024867;28;20485;-76
2022/07/25 06:50:55;;;;;;;12.80;10.13;;;27.10;55.60;;;;;;5022704;28;20466;-76
2022/07/25 06:53:23;;;;;;;15.60;10.00;;;26.90;56.20;;;;;;5028665;28;20955;-76
2022/07/25 06:55:51;;;;;;;13.83;10.20;;;26.70;56.80;;;;;;5021294;28;20472;-76
2022/07/25 06:58:19;;;;;;;12.57;9.83;;;26.50;57.20;;;;;;5028531;28;20472;-77
2022/07/25 07:00:50;;;;;;;11.37;9.67;;;26.40;57.60;;;;;;5024928;28;20489;-77
2022/07/25 07:03:20;;;;;;;14.87;9.20;;;26.30;58.00;;;;;;5027666;28;20578;-77
2022/07/25 07:05:48;;;;;;;13.43;10.40;;;26.30;58.30;;;;;;5023827;28;20465;-77
2022/07/25 07:08:16;;;;;;;13.00;10.10;;;26.30;58.60;;;;;;5028163;28;20481;-77
2022/07/25 07:10:44;;;;;;;13.40;10.33;;;26.30;59.00;;;;;;5028718;28;20459;-77
2022/07/25 07:13:17;;;;;;;14.23;10.27;;;26.30;59.30;;;;;;5027861;28;20544;-77
2022/07/25 07:15:51;;;;;;;12.30;10.10;;;26.30;59.60;;;;;;5024031;28;20862;-77
2022/07/25 07:18:20;;;;;;;13.10;9.10;;;26.30;59.90;;;;;;5028113;28;21175;-77
2022/07/25 07:20:48;;;;;;;15.47;10.70;;;26.40;60.20;;;;;;5027647;28;20472;-77
2022/07/25 07:23:16;;;;;;;16.03;10.60;;;26.40;60.50;;;;;;5026611;28;20451;-76
2022/07/25 07:25:45;;;;;;;13.30;11.17;;;26.50;60.50;;;;;;5026428;28;20475;-77
2022/07/25 07:28:14;;;;;;;15.77;11.20;;;26.50;60.80;;;;;;5024133;28;20516;-77
2022/07/25 07:30:42;;;;;;;12.80;10.67;;;26.60;60.90;;;;;;5026747;28;21000;-76
2022/07/25 07:33:32;;;;;;;11.37;9.77;;;26.70;61.00;;;;;;5024808;28;20963;-76
2022/07/25 07:36:00;;;;;;;11.60;10.00;;;26.80;61.20;;;;;;5026032;28;21153;-77
2022/07/25 07:38:28;;;;;;;11.87;10.60;;;26.90;61.30;;;;;;5024806;28;20482;-77
2022/07/25 07:40:56;;;;;;;14.70;10.80;;;26.90;61.40;;;;;;5024591;28;20853;-77
2022/07/25 07:43:24;;;;;;;12.80;10.10;;;27.00;61.40;;;;;;5026891;28;20506;-77
2022/07/25 07:45:59;;;;;;;13.37;10.33;;;27.10;61.30;;;;;;5026818;28;20472;-77
2022/07/25 07:48:28;;;;;;;23.83;10.97;;;27.20;61.30;;;;;;5028136;28;20529;-76
2022/07/25 07:50:58;;;;;;;14.07;10.60;;;27.20;61.30;;;;;;5010507;28;20552;-77
2022/07/25 07:55:42;;;;;;;13.30;10.07;;;27.30;61.30;;;;;;5023330;28;20463;-77
2022/07/25 07:56:14;;;;;;;13.40;11.17;;;27.40;61.30;;;;;;5025920;28;20473;-76
2022/07/25 07:58:42;;;;;;;13.67;10.53;;;27.50;61.20;;;;;;5026389;28;20516;-77
2022/07/25 08:01:10;;;;;;;13.20;11.00;;;27.50;61.10;;;;;;5026278;28;20480;-77
2022/07/25 08:03:38;;;;;;;12.50;10.70;;;27.60;61.10;;;;;;5026365;28;20455;-77
2022/07/25 08:06:07;;;;;;;15.40;9.67;;;27.70;61.00;;;;;;5027592;28;20460;-77
2022/07/25 08:08:35;;;;;;;15.37;11.70;;;27.80;61.00;;;;;;5026136;28;20493;-77
2022/07/25 08:11:03;;;;;;;16.20;12.17;;;27.80;60.90;;;;;;5027299;28;20452;-77
2022/07/25 08:13:32;;;;;;;13.87;11.00;;;27.90;60.90;;;;;;5025815;28;20450;-77
2022/07/25 08:16:02;;;;;;;12.97;11.00;;;27.90;60.90;;;;;;5023846;28;20524;-77
2022/07/25 08:18:32;;;;;;;15.13;11.00;;;28.00;60.80;;;;;;5023484;28;20902;-77
2022/07/25 08:21:02;;;;;;;11.77;10.03;;;28.10;60.70;;;;;;5025967;28;20506;-77
2022/07/25 08:23:33;;;;;;;13.40;10.90;;;28.10;60.40;;;;;;5031070;28;20463;-77
2022/07/25 08:26:02;;;;;;;14.90;10.97;;;28.20;60.40;;;;;;5028128;28;20571;-77
2022/07/25 08:28:30;;;;;;;13.57;10.13;;;28.30;60.30;;;;;;5030991;28;20502;-77
2022/07/25 08:30:58;;;;;;;12.10;10.07;;;28.40;60.30;;;;;;5023150;28;20479;-77
2022/07/25 08:33:27;;;;;;;13.70;10.30;;;28.40;60.30;;;;;;5027482;28;21027;-77
2022/07/25 08:35:57;;;;;;;13.53;11.03;;;28.50;60.20;;;;;;5014602;28;20460;-77
2022/07/25 08:38:27;;;;;;;13.97;10.70;;;28.60;60.10;;;;;;5028527;28;20549;-77
2022/07/25 08:40:57;;;;;;;15.87;10.07;;;28.70;59.90;;;;;;5030507;28;21023;-77
2022/07/25 08:43:25;;;;;;;13.23;10.07;;;28.80;59.80;;;;;;5028266;28;20474;-76
2022/07/25 08:45:54;;;;;;;11.37;9.50;;;28.80;59.80;;;;;;5029586;28;20521;-77
2022/07/25 08:48:24;;;;;;;14.37;10.70;;;28.80;59.70;;;;;;5032265;28;20487;-77
2022/07/25 08:50:55;;;;;;;12.80;9.60;;;29.00;59.50;;;;;;5031221;28;20554;-76
2022/07/25 08:53:24;;;;;;;11.97;10.00;;;29.00;59.30;;;;;;5032592;28;20466;-77
2022/07/25 08:56:04;;;;;;;13.03;9.70;;;29.10;59.00;;;;;;5037865;28;20472;-77
2022/07/25 08:58:41;;;;;;;13.30;9.47;;;29.10;58.80;;;;;;5033979;28;20538;-77
2022/07/25 09:01:11;;;;;;;11.33;9.70;;;29.20;58.70;;;;;;5035834;28;20485;-77
2022/07/25 09:03:44;;;;;;;13.60;10.17;;;29.20;58.50;;;;;;5032086;28;20444;-77
2022/07/25 09:06:17;;;;;;;15.40;10.73;;;29.20;58.30;;;;;;5031181;28;20466;-77
2022/07/25 09:08:56;;;;;;;11.57;9.67;;;29.30;58.00;;;;;;5031211;28;20475;-77
2022/07/25 09:11:30;;;;;;;13.67;10.33;;;29.30;57.70;;;;;;5030941;28;20465;-77
2022/07/25 09:14:03;;;;;;;12.83;9.80;;;29.40;57.40;;;;;;5028517;28;20524;-77
2022/07/25 09:16:34;;;;;;;15.67;10.07;;;29.50;57.20;;;;;;5024075;28;20477;-77
2022/07/25 09:19:13;;;;;;;15.20;9.67;;;29.50;57.00;;;;;;5028921;28;20468;-77
2022/07/25 09:21:43;;;;;;;13.03;9.17;;;29.50;56.80;;;;;;5027635;28;20487;-77
2022/07/25 09:24:15;;;;;;;17.23;9.97;;;29.60;56.70;;;;;;5030137;28;20477;-77
2022/07/25 09:26:46;;;;;;;11.90;9.60;;;29.60;56.50;;;;;;5017512;28;20570;-77
2022/07/25 09:29:22;;;;;;;10.90;8.80;;;29.70;56.30;;;;;;5024241;28;20452;-77
2022/07/25 09:31:51;;;;;;;13.80;9.87;;;29.80;56.10;;;;;;5025966;28;20593;-77
2022/07/25 09:34:37;;;;;;;14.30;9.20;;;29.90;56.00;;;;;;5027423;28;20584;-77
2022/07/25 09:37:06;;;;;;;12.60;9.20;;;30.00;55.80;;;;;;5026094;28;20482;-77
2022/07/25 09:39:40;;;;;;;13.73;9.77;;;30.00;55.70;;;;;;5029935;28;20461;-77
2022/07/25 09:42:20;;;;;;;12.83;8.80;;;30.10;55.40;;;;;;5026772;28;20493;-77
2022/07/25 09:44:59;;;;;;;12.40;9.40;;;30.10;55.10;;;;;;5029453;28;20450;-77
2022/07/25 09:47:27;;;;;;;14.37;9.30;;;30.20;54.80;;;;;;5028521;28;20570;-77
2022/07/25 09:49:55;;;;;;;10.00;8.43;;;30.20;54.60;;;;;;5030611;28;20938;-77
2022/07/25 09:52:23;;;;;;;11.07;8.53;;;30.20;54.60;;;;;;5029547;28;20482;-77
2022/07/25 09:54:53;;;;;;;11.17;9.20;;;30.30;54.50;;;;;;5029774;28;20463;-77
2022/07/25 09:57:24;;;;;;;10.90;9.10;;;30.30;54.30;;;;;;5029959;28;20560;-77
2022/07/25 10:00:01;;;;;;;12.83;10.00;;;30.40;54.00;;;;;;5030952;28;20546;-77
2022/07/25 10:02:47;;;;;;;11.40;9.47;;;30.40;53.80;;;;;;5028470;28;20536;-77
2022/07/25 10:05:20;;;;;;;11.53;8.30;;;30.40;53.70;;;;;;5030855;28;20450;-77
2022/07/25 10:07:50;;;;;;;11.33;8.90;;;30.50;53.60;;;;;;5028379;28;20484;-77
2022/07/25 10:10:52;;;;;;;9.90;8.57;;;30.60;53.50;;;;;;5028501;28;20459;-77
2022/07/25 10:13:33;;;;;;;11.47;8.87;;;30.60;53.20;;;;;;5030816;28;20485;-77
2022/07/25 10:16:01;;;;;;;11.87;9.00;;;30.60;53.10;;;;;;5027261;28;20477;-76
2022/07/25 10:18:31;;;;;;;10.20;8.83;;;30.60;53.10;;;;;;5029653;28;20483;-77
2022/07/25 10:21:10;;;;;;;11.93;8.87;;;30.70;53.00;;;;;;5027336;28;20474;-77
2022/07/25 10:24:02;;;;;;;13.80;9.77;;;30.70;52.90;;;;;;5025215;28;21149;-77
2022/07/25 10:26:31;;;;;;;11.50;9.27;;;30.80;52.70;;;;;;5012073;28;20458;-77
2022/07/25 10:29:00;;;;;;;11.43;8.60;;;30.80;53.00;;;;;;5027004;28;20457;-77
2022/07/25 10:32:19;;;;;;;13.90;9.70;;;30.90;52.90;;;;;;5025294;28;21231;-77
2022/07/25 10:35:33;;;;;;;13.17;8.97;;;30.90;52.90;;;;;;5026473;28;20427;-77
2022/07/25 10:38:04;;;;;;;12.40;9.43;;;31.00;52.90;;;;;;5027918;28;20494;-77
2022/07/25 10:40:35;;;;;;;12.27;8.47;;;31.10;52.70;;;;;;5026441;28;20471;-77
2022/07/25 10:43:14;;;;;;;10.07;8.37;;;31.20;52.30;;;;;;5023494;28;20982;-77
2022/07/25 10:49:59;;;;;;;10.07;8.20;;;31.20;52.00;;;;;;5027011;28;20470;-77
2022/07/25 10:52:58;;;;;;;10.40;9.03;;;31.20;51.90;;;;;;5026044;28;20556;-77
2022/07/25 10:55:28;;;;;;;11.50;8.83;;;31.20;51.80;;;;;;5025451;28;20478;-77
2022/07/25 10:58:02;;;;;;;12.23;8.80;;;31.20;51.50;;;;;;5024938;28;20489;-77
2022/07/25 11:00:45;;;;;;;10.80;8.57;;;31.30;51.20;;;;;;5024595;28;20477;-77
2022/07/25 11:03:13;;;;;;;10.20;8.33;;;31.30;51.30;;;;;;5024184;28;20497;-78
2022/07/25 11:05:47;;;;;;;9.70;7.60;;;31.40;51.10;;;;;;5023498;28;20467;-78
2022/07/25 11:08:15;;;;;;;14.60;8.57;;;31.40;51.00;;;;;;5027786;28;20766;-77
2022/07/25 11:10:52;;;;;;;10.57;8.03;;;31.50;50.90;;;;;;5027749;28;21022;-78
2022/07/25 11:13:20;;;;;;;12.43;8.03;;;31.50;50.60;;;;;;5026538;28;20488;-78
2022/07/25 11:16:38;;;;;;;12.50;8.63;;;31.50;50.50;;;;;;5026453;28;20447;-77
2022/07/25 11:19:16;;;;;;;8.93;7.80;;;31.60;50.50;;;;;;5026408;28;20430;-77
2022/07/25 11:21:46;;;;;;;10.83;8.70;;;31.70;50.30;;;;;;5030744;28;20450;-77
2022/07/25 11:24:14;;;;;;;10.10;7.70;;;31.80;50.10;;;;;;5030282;28;20462;-77
2022/07/25 11:26:46;;;;;;;9.40;7.63;;;31.80;50.00;;;;;;5031800;28;20455;-76
2022/07/25 11:29:30;;;;;;;11.53;7.10;;;31.90;49.70;;;;;;5033662;28;20468;-77
2022/07/25 11:32:00;;;;;;;10.00;7.43;;;32.00;49.50;;;;;;5027810;28;21016;-77
2022/07/25 11:34:30;;;;;;;8.60;7.20;;;32.10;49.20;;;;;;5031238;28;20468;-77
2022/07/25 11:37:03;;;;;;;9.40;6.80;;;32.10;49.10;;;;;;5027306;28;20492;-77
2022/07/25 11:39:33;;;;;;;10.33;6.10;;;32.20;48.60;;;;;;5028210;28;20456;-77
2022/07/25 11:42:03;;;;;;;9.53;7.13;;;32.30;48.40;;;;;;5028561;28;20487;-78
2022/07/25 11:44:36;;;;;;;9.80;5.83;;;32.20;48.10;;;;;;5028639;28;20460;-77
2022/07/25 11:47:06;;;;;;;8.30;6.40;;;32.20;47.80;;;;;;5026819;28;20495;-77
2022/07/25 11:49:44;;;;;;;10.03;6.00;;;32.20;47.70;;;;;;5021833;28;20471;-77
2022/07/25 11:56:20;;;;;;;9.23;6.97;;;32.20;47.60;;;;;;5023383;28;20430;-77
2022/07/25 11:59:09;;;;;;;9.43;5.63;;;32.20;47.50;;;;;;5023655;28;20946;-76
2022/07/25 12:01:39;;;;;;;8.63;5.50;;;32.20;47.40;;;;;;5026174;28;20530;-76
2022/07/25 12:04:12;;;;;;;8.87;5.90;;;32.30;47.30;;;;;;5022415;28;20485;-76
2022/07/25 12:06:40;;;;;;;10.20;5.97;;;32.40;47.20;;;;;;5024586;28;20459;-76
2022/07/25 12:09:55;;;;;;;8.80;6.20;;;32.50;47.00;;;;;;5025783;28;20983;-76
2022/07/25 12:12:24;;;;;;;9.57;6.27;;;32.60;47.20;;;;;;5023457;28;20871;-76
2022/07/25 12:14:52;;;;;;;8.07;6.10;;;32.70;47.20;;;;;;5021536;28;20456;-76
2022/07/25 12:17:20;;;;;;;12.13;7.60;;;32.70;47.20;;;;;;5022062;28;21052;-77
2022/07/25 12:19:48;;;;;;;10.00;6.30;;;32.80;47.10;;;;;;5021525;28;20463;-76
2022/07/25 12:22:16;;;;;;;8.20;6.07;;;32.80;47.00;;;;;;5021696;28;20458;-77
2022/07/25 12:24:44;;;;;;;9.30;5.90;;;32.70;47.00;;;;;;5020979;28;20877;-77
2022/07/25 12:27:12;;;;;;;8.07;5.10;;;32.80;47.00;;;;;;5024139;28;20469;-76
2022/07/25 12:29:41;;;;;;;7.20;5.30;;;32.80;46.90;;;;;;5023834;28;20460;-77
2022/07/25 12:32:09;;;;;;;8.57;5.30;;;32.80;46.70;;;;;;5020265;28;20997;-77
2022/07/25 12:34:37;;;;;;;8.67;6.03;;;32.90;46.40;;;;;;5024452;28;20474;-76
2022/07/25 12:37:05;;;;;;;12.00;6.10;;;32.90;46.40;;;;;;5026991;28;20824;-76
2022/07/25 12:39:33;;;;;;;7.20;5.47;;;32.90;46.30;;;;;;5025651;28;20456;-77
2022/07/25 12:42:01;;;;;;;9.80;6.20;;;32.90;46.20;;;;;;5019251;28;20458;-76
2022/07/25 12:44:29;;;;;;;7.53;6.00;;;32.90;46.10;;;;;;5012180;28;21279;-78
2022/07/25 12:46:58;;;;;;;8.83;6.90;;;33.00;46.00;;;;;;5024658;28;20450;-76
2022/07/25 12:49:26;;;;;;;9.40;5.33;;;33.00;45.90;;;;;;5024775;28;20992;-77
2022/07/25 12:51:54;;;;;;;7.80;5.53;;;32.90;45.90;;;;;;5025840;28;20471;-77
2022/07/25 12:54:25;;;;;;;9.47;6.00;;;32.90;45.80;;;;;;5023125;28;20543;-77
2022/07/25 12:56:53;;;;;;;10.07;6.00;;;32.90;45.90;;;;;;5013105;28;20488;-77
2022/07/25 12:59:21;;;;;;;8.40;6.60;;;32.80;46.10;;;;;;5027490;28;20471;-77
2022/07/25 13:01:49;;;;;;;8.83;7.27;;;32.80;46.40;;;;;;5024311;28;20446;-77
2022/07/25 13:04:18;;;;;;;9.53;6.60;;;32.80;46.60;;;;;;5024268;28;20995;-77